sensor_id;sensor_type;location;lat;lon;timestamp;temperature;humidity
27922;DHT22;15261;50.356;10.340;2023-03-13T00:00:31;4.70;99.90
27922;DHT22;15261;50.356;10.340;2023-03-13T00:02:57;4.60;99.90
27922;DHT22;15261;50.356;10.340;2023-03-13T00:05:22;4.60;99.90
27922;DHT22;15261;50.356;10.340;2023-03-13T00:07:48;4.60;99.90
27922;DHT22;15261;50.356;10.340;2023-03-13T00:10:13;4.70;99.90
27922;DHT22;15261;50.356;10.340;2023-03-13T00:12:39;4.70;99.90
27922;DHT22;15261;50.356;10.340;2023-03-13T00:15:05;4.70;99.90
27922;DHT22;15261;50.356;10.340;2023-03-13T00:17:30;4.80;99.90
27922;DHT22;15261;50.356;10.340;2023-03-13T00:19:57;4.90;99.90
27922;DHT22;15261;50.356;10.340;2023-03-13T00:22:23;5.00;99.90
27922;DHT22;15261;50.356;10.340;2023-03-13T00:24:48;5.10;99.90
27922;DHT22;15261;50.356;10.340;2023-03-13T00:27:14;5.30;99.90
27922;DHT22;15261;50.356;10.340;2023-03-13T00:29:39;5.40;99.90
27922;DHT22;15261;50.356;10.340;2023-03-13T00:32:05;5.50;99.90
27922;DHT22;15261;50.356;10.340;2023-03-13T00:34:31;5.60;99.90
27922;DHT22;15261;50.356;10.340;2023-03-13T00:36:56;5.60;99.90
27922;DHT22;15261;50.356;10.340;2023-03-13T00:39:22;5.70;99.90
27922;DHT22;15261;50.356;10.340;2023-03-13T00:41:47;5.70;99.90
27922;DHT22;15261;50.356;10.340;2023-03-13T00:44:13;5.80;99.90
27922;DHT22;15261;50.356;10.340;2023-03-13T00:46:39;5.80;99.90
27922;DHT22;15261;50.356;10.340;2023-03-13T00:49:05;5.80;99.90
27922;DHT22;15261;50.356;10.340;2023-03-13T00:51:30;5.90;99.90
27922;DHT22;15261;50.356;10.340;2023-03-13T00:53:57;5.90;99.90
27922;DHT22;15261;50.356;10.340;2023-03-13T00:56:24;5.90;99.90
27922;DHT22;15261;50.356;10.340;2023-03-13T00:58:50;5.90;99.90
27922;DHT22;15261;50.356;10.340;2023-03-13T01:01:22;5.90;99.90
27922;DHT22;15261;50.356;10.340;2023-03-13T01:03:54;5.90;99.90
27922;DHT22;15261;50.356;10.340;2023-03-13T01:06:25;5.90;99.90
27922;DHT22;15261;50.356;10.340;2023-03-13T01:08:51;5.90;99.90
27922;DHT22;15261;50.356;10.340;2023-03-13T01:11:19;5.80;99.90
27922;DHT22;15261;50.356;10.340;2023-03-13T01:13:47;5.80;99.90
27922;DHT22;15261;50.356;10.340;2023-03-13T01:16:18;5.80;99.90
27922;DHT22;15261;50.356;10.340;2023-03-13T01:18:47;5.80;99.90
27922;DHT22;15261;50.356;10.340;2023-03-13T01:21:14;5.70;99.90
27922;DHT22;15261;50.356;10.340;2023-03-13T01:23:39;5.80;99.90
27922;DHT22;15261;50.356;10.340;2023-03-13T01:26:06;5.80;99.90
27922;DHT22;15261;50.356;10.340;2023-03-13T01:28:33;5.80;99.90
27922;DHT22;15261;50.356;10.340;2023-03-13T01:30:59;5.80;99.90
27922;DHT22;15261;50.356;10.340;2023-03-13T01:36:47;5.80;99.90
27922;DHT22;15261;50.356;10.340;2023-03-13T01:39:15;5.80;99.90
27922;DHT22;15261;50.356;10.340;2023-03-13T01:41:41;5.80;99.90
27922;DHT22;15261;50.356;10.340;2023-03-13T01:44:24;5.90;99.90
27922;DHT22;15261;50.356;10.340;2023-03-13T01:46:50;5.90;99.90
27922;DHT22;15261;50.356;10.340;2023-03-13T01:49:30;5.90;99.90
27922;DHT22;15261;50.356;10.340;2023-03-13T01:52:01;5.90;99.90
27922;DHT22;15261;50.356;10.340;2023-03-13T01:54:32;6.00;99.90
27922;DHT22;15261;50.356;10.340;2023-03-13T01:57:20;6.00;99.90
27922;DHT22;15261;50.356;10.340;2023-03-13T01:59:53;6.00;99.90
27922;DHT22;15261;50.356;10.340;2023-03-13T07:17:13;8.30;99.90
27922;DHT22;15261;50.356;10.340;2023-03-13T07:19:39;8.40;99.90
27922;DHT22;15261;50.356;10.340;2023-03-13T07:22:04;8.40;99.90
27922;DHT22;15261;50.356;10.340;2023-03-13T07:24:30;8.40;99.90
27922;DHT22;15261;50.356;10.340;2023-03-13T07:26:56;8.40;99.90
27922;DHT22;15261;50.356;10.340;2023-03-13T07:29:21;8.50;99.90
27922;DHT22;15261;50.356;10.340;2023-03-13T07:31:48;8.50;99.90
27922;DHT22;15261;50.356;10.340;2023-03-13T07:34:13;8.50;99.90
27922;DHT22;15261;50.356;10.340;2023-03-13T07:36:39;8.50;99.90
27922;DHT22;15261;50.356;10.340;2023-03-13T07:39:06;8.50;99.90
27922;DHT22;15261;50.356;10.340;2023-03-13T07:41:32;8.60;99.90
27922;DHT22;15261;50.356;10.340;2023-03-13T07:43:58;8.60;99.90
27922;DHT22;15261;50.356;10.340;2023-03-13T07:46:23;8.60;99.90
27922;DHT22;15261;50.356;10.340;2023-03-13T07:48:49;8.70;99.90
27922;DHT22;15261;50.356;10.340;2023-03-13T07:51:21;8.60;99.90
27922;DHT22;15261;50.356;10.340;2023-03-13T07:53:47;8.70;99.90
27922;DHT22;15261;50.356;10.340;2023-03-13T07:56:15;8.80;99.90
27922;DHT22;15261;50.356;10.340;2023-03-13T07:58:41;8.80;99.90
27922;DHT22;15261;50.356;10.340;2023-03-13T08:01:12;8.80;99.90
27922;DHT22;15261;50.356;10.340;2023-03-13T08:03:39;8.90;99.90
27922;DHT22;15261;50.356;10.340;2023-03-13T08:06:13;9.00;99.90
27922;DHT22;15261;50.356;10.340;2023-03-13T08:08:39;9.00;99.90
27922;DHT22;15261;50.356;10.340;2023-03-13T08:11:13;9.10;99.90
27922;DHT22;15261;50.356;10.340;2023-03-13T08:13:39;9.10;99.90
27922;DHT22;15261;50.356;10.340;2023-03-13T08:16:10;9.10;99.90
27922;DHT22;15261;50.356;10.340;2023-03-13T08:18:38;9.20;99.90
27922;DHT22;15261;50.356;10.340;2023-03-13T08:21:09;9.20;99.90
27922;DHT22;15261;50.356;10.340;2023-03-13T08:23:35;9.20;99.90
27922;DHT22;15261;50.356;10.340;2023-03-13T08:26:06;9.20;99.90
27922;DHT22;15261;50.356;10.340;2023-03-13T08:28:33;9.30;99.90
27922;DHT22;15261;50.356;10.340;2023-03-13T08:31:05;9.20;99.90
27922;DHT22;15261;50.356;10.340;2023-03-13T08:33:33;9.30;99.90
27922;DHT22;15261;50.356;10.340;2023-03-13T08:35:59;9.40;99.90
27922;DHT22;15261;50.356;10.340;2023-03-13T08:38:24;9.40;99.90
27922;DHT22;15261;50.356;10.340;2023-03-13T08:40:55;9.50;99.90
27922;DHT22;15261;50.356;10.340;2023-03-13T08:43:22;9.50;99.90
27922;DHT22;15261;50.356;10.340;2023-03-13T08:45:54;9.60;99.90
27922;DHT22;15261;50.356;10.340;2023-03-13T08:48:19;9.70;99.90
27922;DHT22;15261;50.356;10.340;2023-03-13T08:50:45;9.80;99.90
27922;DHT22;15261;50.356;10.340;2023-03-13T08:53:10;9.80;99.90
27922;DHT22;15261;50.356;10.340;2023-03-13T08:55:36;9.80;99.90
27922;DHT22;15261;50.356;10.340;2023-03-13T08:58:01;9.90;99.90
27922;DHT22;15261;50.356;10.340;2023-03-13T09:00:27;9.90;99.90
27922;DHT22;15261;50.356;10.340;2023-03-13T09:02:52;9.90;99.90
27922;DHT22;15261;50.356;10.340;2023-03-13T09:05:18;9.90;99.90
27922;DHT22;15261;50.356;10.340;2023-03-13T09:07:43;9.90;99.90
27922;DHT22;15261;50.356;10.340;2023-03-13T09:10:09;9.90;99.90
27922;DHT22;15261;50.356;10.340;2023-03-13T09:12:35;10.00;99.90
